Grafton, ND (58237)

11:47 AM CST on February 07, 2016 (GMT -0600)
Grafton-in town | | Change Station
CLOSE
Current Station
Personal Weather Station
Location: Grafton, ND
Elevation: 833 ft
Nearby Weather Stations
Active Advisory: Blizzard Warning

Elev 833 ft 48.41 °N, 97.41 °W | Updated 7 seconds ago

Overcast
Overcast
21.4 °F
Feels Like 12 °F
N
8.3
Wind Variable Wind from West

Today
High -- | Low -- °F
--% Chance of Precip.
Yesterday
High -- | Low -- °F
Precip. -- in
Pressure 29.73 in
Visibility 9.0 miles
Clouds Mostly Cloudy 1800 ft
Overcast 4200 ft
Windchill 12 °F
Dew Point 15 °F
Humidity 75%
Rainfall 0.07 in
Snow Depth Not available.
7:50 AM 5:37 PM
Waning Crescent, 1% visible
METAR KGAF 071735Z AUTO 34029G39KT 9SM BKN018 OVC042 M06/M08 A2973 RMK AO2
Pressure 29.73 in
Visibility 9.0 miles
Clouds Mostly Cloudy 1800 ft
Overcast 4200 ft
Windchill 12 °F
Dew Point 15 °F
Humidity 75%
Rainfall 0.07 in
Snow Depth Not available.
7:50 AM 5:37 PM
Waning Crescent, 1% visible
METAR KGAF 071735Z AUTO 34029G39KT 9SM BKN018 OVC042 M06/M08 A2973 RMK AO2

10-Day Weather Forecast

Almanac

Astronomy

Feb. 07, 2016 Rise Set
Actual Time
Civil Twilight
Nautical Twilight
Astronomical Twilight
Moon
Length of Visible Light
Length of Day
Tomorrow will be .
, % of the Moon is Illuminated

Today's Extremes

State Highs State Lows

Community

WunderPhotos

Upload Photos

1,891,248 photos uploaded!

WunderBlog® & News

Nearby

Air Quality

  Air Quality AQ Index Pollutant
Not available.

Snow Depth

Station Depth Elevation

Earthquake Activity

City Distance Mag. Time & Date
Minimum magnitude displayed is 2.5.

Coastal Water Temperatures

Place Temperature

Stations

Nearby Weather Stations

Station Location Temp. Windchill Dew Point Humidity Wind Precip. Elev Updated Type
                   

Watches & Warnings

Blizzard Warning
Issued: 10:16 AM CST Feb. 7, 2016 – National Weather Service

... Blizzard Warning remains in effect until 6 am CST Monday...

* timing... expect blizzard conditions to develop this morning and
continue into tonight.

* Winds / visibilities... winds gusting as high as 50 mph will
combine with falling snow to cause whiteout conditions at times.

* Snow accumulations... 1 to 3 inches.

* Impacts... travel will be very difficult.

Precautionary/preparedness actions...

A Blizzard Warning means severe winter weather conditions are
expected or occurring. Falling snow with strong winds and poor
visibilities are likely. This will lead to whiteout
conditions... making travel extremely dangerous. Do not travel. If
you must travel... have a winter survival kit with you. If you get
stranded... stay with your vehicle. The latest Road conditions for
the state you are calling from can be obtained by calling 5 1 1.